sensor_id;sensor_type;location;lat;lon;timestamp;temperature;humidity
21744;DHT22;11034;48.556;9.342;2022-07-06T00:02:12;17.00;99.90
21744;DHT22;11034;48.556;9.342;2022-07-06T00:04:41;16.90;99.90
21744;DHT22;11034;48.556;9.342;2022-07-06T00:07:09;16.80;99.90
21744;DHT22;11034;48.556;9.342;2022-07-06T00:09:37;16.80;99.90
21744;DHT22;11034;48.556;9.342;2022-07-06T00:12:06;16.80;99.90
21744;DHT22;11034;48.556;9.342;2022-07-06T00:14:34;16.70;99.90
21744;DHT22;11034;48.556;9.342;2022-07-06T00:17:03;16.70;99.90
21744;DHT22;11034;48.556;9.342;2022-07-06T00:19:31;16.60;99.90
21744;DHT22;11034;48.556;9.342;2022-07-06T00:22:01;16.60;99.90
21744;DHT22;11034;48.556;9.342;2022-07-06T00:24:29;16.50;99.90
21744;DHT22;11034;48.556;9.342;2022-07-06T00:26:57;16.50;99.90
21744;DHT22;11034;48.556;9.342;2022-07-06T00:29:25;16.50;99.90
21744;DHT22;11034;48.556;9.342;2022-07-06T00:31:53;16.50;99.90
21744;DHT22;11034;48.556;9.342;2022-07-06T00:34:21;16.40;99.90
21744;DHT22;11034;48.556;9.342;2022-07-06T00:36:50;16.40;99.90
21744;DHT22;11034;48.556;9.342;2022-07-06T00:39:19;16.40;99.90
21744;DHT22;11034;48.556;9.342;2022-07-06T00:41:48;16.40;99.90
21744;DHT22;11034;48.556;9.342;2022-07-06T00:44:16;16.30;99.90
21744;DHT22;11034;48.556;9.342;2022-07-06T00:46:44;16.30;99.90
21744;DHT22;11034;48.556;9.342;2022-07-06T00:49:12;16.30;99.90
21744;DHT22;11034;48.556;9.342;2022-07-06T00:51:55;16.20;99.90
21744;DHT22;11034;48.556;9.342;2022-07-06T00:54:25;16.20;99.90
21744;DHT22;11034;48.556;9.342;2022-07-06T00:56:54;16.10;99.90
21744;DHT22;11034;48.556;9.342;2022-07-06T00:59:23;16.10;99.90
21744;DHT22;11034;48.556;9.342;2022-07-06T01:01:51;16.00;99.90
21744;DHT22;11034;48.556;9.342;2022-07-06T01:04:20;16.00;99.90
21744;DHT22;11034;48.556;9.342;2022-07-06T01:06:48;16.00;99.90
21744;DHT22;11034;48.556;9.342;2022-07-06T01:09:16;16.00;99.90
21744;DHT22;11034;48.556;9.342;2022-07-06T01:11:46;16.10;99.90
21744;DHT22;11034;48.556;9.342;2022-07-06T01:14:14;16.10;99.90
21744;DHT22;11034;48.556;9.342;2022-07-06T01:16:43;16.10;99.90
21744;DHT22;11034;48.556;9.342;2022-07-06T01:19:11;16.10;99.90
21744;DHT22;11034;48.556;9.342;2022-07-06T01:21:41;16.10;99.90
21744;DHT22;11034;48.556;9.342;2022-07-06T01:24:09;16.10;99.90
21744;DHT22;11034;48.556;9.342;2022-07-06T01:26:37;16.10;99.90
21744;DHT22;11034;48.556;9.342;2022-07-06T01:29:05;16.00;99.90
21744;DHT22;11034;48.556;9.342;2022-07-06T01:31:34;16.00;99.90
21744;DHT22;11034;48.556;9.342;2022-07-06T01:34:02;15.90;99.90
21744;DHT22;11034;48.556;9.342;2022-07-06T01:36:30;15.90;99.90
21744;DHT22;11034;48.556;9.342;2022-07-06T01:39:00;15.90;99.90
21744;DHT22;11034;48.556;9.342;2022-07-06T01:41:28;15.90;99.90
21744;DHT22;11034;48.556;9.342;2022-07-06T01:43:56;15.90;99.90
21744;DHT22;11034;48.556;9.342;2022-07-06T01:46:24;15.90;99.90
21744;DHT22;11034;48.556;9.342;2022-07-06T01:48:52;15.90;99.90
21744;DHT22;11034;48.556;9.342;2022-07-06T01:51:20;16.00;99.90
21744;DHT22;11034;48.556;9.342;2022-07-06T01:53:49;16.00;99.90
21744;DHT22;11034;48.556;9.342;2022-07-06T01:56:19;16.00;99.90
21744;DHT22;11034;48.556;9.342;2022-07-06T01:58:48;15.90;99.90
21744;DHT22;11034;48.556;9.342;2022-07-06T02:01:18;15.80;99.90
21744;DHT22;11034;48.556;9.342;2022-07-06T02:03:47;15.80;99.90
21744;DHT22;11034;48.556;9.342;2022-07-06T02:06:15;15.80;99.90
21744;DHT22;11034;48.556;9.342;2022-07-06T02:08:43;15.80;99.90
21744;DHT22;11034;48.556;9.342;2022-07-06T02:11:11;15.70;99.90
21744;DHT22;11034;48.556;9.342;2022-07-06T02:13:41;15.60;99.90
21744;DHT22;11034;48.556;9.342;2022-07-06T02:16:10;15.60;99.90
21744;DHT22;11034;48.556;9.342;2022-07-06T02:18:38;15.50;99.90
21744;DHT22;11034;48.556;9.342;2022-07-06T02:21:06;15.50;99.90
21744;DHT22;11034;48.556;9.342;2022-07-06T02:23:34;15.50;99.90
21744;DHT22;11034;48.556;9.342;2022-07-06T02:26:02;15.40;99.90
21744;DHT22;11034;48.556;9.342;2022-07-06T02:28:31;15.40;99.90
21744;DHT22;11034;48.556;9.342;2022-07-06T02:31:01;15.40;99.90
21744;DHT22;11034;48.556;9.342;2022-07-06T02:33:29;15.30;99.90
21744;DHT22;11034;48.556;9.342;2022-07-06T02:35:57;15.30;99.90
21744;DHT22;11034;48.556;9.342;2022-07-06T02:38:25;15.30;99.90
21744;DHT22;11034;48.556;9.342;2022-07-06T02:40:53;15.30;99.90
21744;DHT22;11034;48.556;9.342;2022-07-06T02:43:21;15.20;99.90
21744;DHT22;11034;48.556;9.342;2022-07-06T02:45:50;15.20;99.90
21744;DHT22;11034;48.556;9.342;2022-07-06T02:48:19;15.10;99.90
21744;DHT22;11034;48.556;9.342;2022-07-06T02:50:48;15.00;99.90
21744;DHT22;11034;48.556;9.342;2022-07-06T02:53:17;15.00;99.90
21744;DHT22;11034;48.556;9.342;2022-07-06T02:55:46;14.90;99.90
21744;DHT22;11034;48.556;9.342;2022-07-06T02:58:14;14.90;99.90
21744;DHT22;11034;48.556;9.342;2022-07-06T03:00:42;14.90;99.90
21744;DHT22;11034;48.556;9.342;2022-07-06T03:03:10;14.80;99.90
21744;DHT22;11034;48.556;9.342;2022-07-06T03:05:40;14.80;99.90
21744;DHT22;11034;48.556;9.342;2022-07-06T03:08:08;14.80;99.90
21744;DHT22;11034;48.556;9.342;2022-07-06T03:10:36;14.70;99.90
21744;DHT22;11034;48.556;9.342;2022-07-06T03:13:04;14.70;99.90
21744;DHT22;11034;48.556;9.342;2022-07-06T03:15:32;14.70;99.90
21744;DHT22;11034;48.556;9.342;2022-07-06T03:18:00;14.70;99.90
21744;DHT22;11034;48.556;9.342;2022-07-06T03:20:30;14.50;99.90
21744;DHT22;11034;48.556;9.342;2022-07-06T03:22:59;14.60;99.90
21744;DHT22;11034;48.556;9.342;2022-07-06T03:25:27;14.50;99.90
21744;DHT22;11034;48.556;9.342;2022-07-06T03:27:55;14.50;99.90
21744;DHT22;11034;48.556;9.342;2022-07-06T03:30:23;14.40;99.90
21744;DHT22;11034;48.556;9.342;2022-07-06T03:32:51;14.40;99.90
21744;DHT22;11034;48.556;9.342;2022-07-06T03:35:19;14.40;99.90
21744;DHT22;11034;48.556;9.342;2022-07-06T03:37:48;14.40;99.90
21744;DHT22;11034;48.556;9.342;2022-07-06T03:40:17;14.40;99.90
21744;DHT22;11034;48.556;9.342;2022-07-06T03:42:45;14.40;99.90
21744;DHT22;11034;48.556;9.342;2022-07-06T03:45:14;14.40;99.90
21744;DHT22;11034;48.556;9.342;2022-07-06T03:47:42;14.40;99.90
21744;DHT22;11034;48.556;9.342;2022-07-06T03:50:10;14.40;99.90
21744;DHT22;11034;48.556;9.342;2022-07-06T03:52:38;14.40;99.90
21744;DHT22;11034;48.556;9.342;2022-07-06T03:55:08;14.50;99.90
21744;DHT22;11034;48.556;9.342;2022-07-06T03:57:38;14.50;99.90
21744;DHT22;11034;48.556;9.342;2022-07-06T04:00:09;14.60;99.90
21744;DHT22;11034;48.556;9.342;2022-07-06T04:02:37;14.70;99.90
21744;DHT22;11034;48.556;9.342;2022-07-06T04:05:06;14.70;99.90
21744;DHT22;11034;48.556;9.342;2022-07-06T04:07:34;14.80;99.90
21744;DHT22;11034;48.556;9.342;2022-07-06T04:10:03;14.80;99.90
21744;DHT22;11034;48.556;9.342;2022-07-06T04:12:31;14.90;99.90
21744;DHT22;11034;48.556;9.342;2022-07-06T04:15:01;15.00;99.90
21744;DHT22;11034;48.556;9.342;2022-07-06T04:17:29;15.20;99.90
21744;DHT22;11034;48.556;9.342;2022-07-06T04:20:14;15.20;99.90
21744;DHT22;11034;48.556;9.342;2022-07-06T04:22:42;15.20;99.90
21744;DHT22;11034;48.556;9.342;2022-07-06T04:25:10;15.20;99.90
21744;DHT22;11034;48.556;9.342;2022-07-06T04:27:39;15.30;99.90
21744;DHT22;11034;48.556;9.342;2022-07-06T04:30:10;15.70;99.90
21744;DHT22;11034;48.556;9.342;2022-07-06T04:32:39;16.50;99.90
21744;DHT22;11034;48.556;9.342;2022-07-06T04:35:10;17.10;99.90
21744;DHT22;11034;48.556;9.342;2022-07-06T04:37:39;17.70;99.90
21744;DHT22;11034;48.556;9.342;2022-07-06T04:40:08;18.20;99.90
21744;DHT22;11034;48.556;9.342;2022-07-06T04:42:43;18.60;99.90
21744;DHT22;11034;48.556;9.342;2022-07-06T04:45:13;18.80;99.90
21744;DHT22;11034;48.556;9.342;2022-07-06T04:47:41;19.10;99.90
21744;DHT22;11034;48.556;9.342;2022-07-06T04:50:11;19.50;99.90
21744;DHT22;11034;48.556;9.342;2022-07-06T04:52:39;19.50;99.90
21744;DHT22;11034;48.556;9.342;2022-07-06T04:55:08;19.70;99.90
21744;DHT22;11034;48.556;9.342;2022-07-06T04:57:36;19.70;99.90
21744;DHT22;11034;48.556;9.342;2022-07-06T05:00:06;20.20;99.90
21744;DHT22;11034;48.556;9.342;2022-07-06T05:02:36;20.50;99.90
21744;DHT22;11034;48.556;9.342;2022-07-06T05:05:05;20.50;99.90
21744;DHT22;11034;48.556;9.342;2022-07-06T05:07:33;20.50;99.90
21744;DHT22;11034;48.556;9.342;2022-07-06T05:10:07;20.50;99.90
21744;DHT22;11034;48.556;9.342;2022-07-06T05:12:35;20.60;99.90
21744;DHT22;11034;48.556;9.342;2022-07-06T05:15:05;20.50;99.90
21744;DHT22;11034;48.556;9.342;2022-07-06T05:17:36;20.60;99.90
21744;DHT22;11034;48.556;9.342;2022-07-06T05:20:05;21.00;99.90
21744;DHT22;11034;48.556;9.342;2022-07-06T05:22:34;20.90;99.90
21744;DHT22;11034;48.556;9.342;2022-07-06T05:25:11;20.90;99.90
21744;DHT22;11034;48.556;9.342;2022-07-06T05:27:39;21.00;99.90
21744;DHT22;11034;48.556;9.342;2022-07-06T05:30:08;20.90;99.90
21744;DHT22;11034;48.556;9.342;2022-07-06T05:32:38;20.60;99.90
21744;DHT22;11034;48.556;9.342;2022-07-06T05:35:07;21.10;99.90
21744;DHT22;11034;48.556;9.342;2022-07-06T05:37:56;21.20;99.90
21744;DHT22;11034;48.556;9.342;2022-07-06T05:40:40;21.60;99.90
21744;DHT22;11034;48.556;9.342;2022-07-06T05:43:08;21.70;99.90
21744;DHT22;11034;48.556;9.342;2022-07-06T05:45:36;21.70;99.90
21744;DHT22;11034;48.556;9.342;2022-07-06T05:48:06;21.80;99.90
21744;DHT22;11034;48.556;9.342;2022-07-06T05:50:52;22.20;99.90
21744;DHT22;11034;48.556;9.342;2022-07-06T05:53:20;22.60;99.90
21744;DHT22;11034;48.556;9.342;2022-07-06T05:55:49;22.60;99.90
21744;DHT22;11034;48.556;9.342;2022-07-06T05:58:17;22.90;99.90
21744;DHT22;11034;48.556;9.342;2022-07-06T06:00:45;23.30;99.90
21744;DHT22;11034;48.556;9.342;2022-07-06T06:03:15;23.20;99.90
21744;DHT22;11034;48.556;9.342;2022-07-06T06:05:43;23.60;99.90
21744;DHT22;11034;48.556;9.342;2022-07-06T06:08:11;23.60;99.90
21744;DHT22;11034;48.556;9.342;2022-07-06T06:10:39;23.70;99.90
21744;DHT22;11034;48.556;9.342;2022-07-06T06:13:07;23.50;99.90
21744;DHT22;11034;48.556;9.342;2022-07-06T06:15:36;24.00;99.90
21744;DHT22;11034;48.556;9.342;2022-07-06T06:18:04;23.80;99.90
21744;DHT22;11034;48.556;9.342;2022-07-06T06:20:34;23.90;99.90
21744;DHT22;11034;48.556;9.342;2022-07-06T06:23:02;24.30;99.90
21744;DHT22;11034;48.556;9.342;2022-07-06T06:25:49;23.60;99.90
21744;DHT22;11034;48.556;9.342;2022-07-06T06:28:18;24.00;99.90
21744;DHT22;11034;48.556;9.342;2022-07-06T06:30:46;23.50;99.90
21744;DHT22;11034;48.556;9.342;2022-07-06T06:33:18;23.60;99.90
21744;DHT22;11034;48.556;9.342;2022-07-06T06:35:49;24.10;99.90
21744;DHT22;11034;48.556;9.342;2022-07-06T06:38:18;24.40;99.90
21744;DHT22;11034;48.556;9.342;2022-07-06T06:40:47;25.10;99.90
21744;DHT22;11034;48.556;9.342;2022-07-06T06:43:15;25.20;99.90
21744;DHT22;11034;48.556;9.342;2022-07-06T06:45:43;25.10;99.90
21744;DHT22;11034;48.556;9.342;2022-07-06T06:48:13;25.50;99.90
21744;DHT22;11034;48.556;9.342;2022-07-06T06:50:43;25.60;99.90
21744;DHT22;11034;48.556;9.342;2022-07-06T06:53:13;26.00;99.90
21744;DHT22;11034;48.556;9.342;2022-07-06T06:55:41;26.20;99.90
21744;DHT22;11034;48.556;9.342;2022-07-06T06:58:11;26.00;99.90
21744;DHT22;11034;48.556;9.342;2022-07-06T07:00:40;24.80;99.90
21744;DHT22;11034;48.556;9.342;2022-07-06T07:03:10;24.70;99.90
21744;DHT22;11034;48.556;9.342;2022-07-06T07:05:38;24.40;99.90
21744;DHT22;11034;48.556;9.342;2022-07-06T07:08:06;24.30;99.90
21744;DHT22;11034;48.556;9.342;2022-07-06T07:10:36;24.60;99.90
21744;DHT22;11034;48.556;9.342;2022-07-06T07:13:04;24.60;99.90
21744;DHT22;11034;48.556;9.342;2022-07-06T07:15:32;24.80;99.90
21744;DHT22;11034;48.556;9.342;2022-07-06T07:18:00;25.30;99.90
21744;DHT22;11034;48.556;9.342;2022-07-06T07:20:29;25.50;99.90
21744;DHT22;11034;48.556;9.342;2022-07-06T07:22:59;25.50;99.90
21744;DHT22;11034;48.556;9.342;2022-07-06T07:25:28;25.50;99.90
21744;DHT22;11034;48.556;9.342;2022-07-06T07:27:57;25.40;99.90
21744;DHT22;11034;48.556;9.342;2022-07-06T07:30:25;25.40;99.90
21744;DHT22;11034;48.556;9.342;2022-07-06T07:32:54;25.60;99.90
21744;DHT22;11034;48.556;9.342;2022-07-06T07:35:23;25.50;99.90
21744;DHT22;11034;48.556;9.342;2022-07-06T07:37:54;26.00;99.90
21744;DHT22;11034;48.556;9.342;2022-07-06T07:40:23;25.80;99.90
21744;DHT22;11034;48.556;9.342;2022-07-06T07:42:51;25.40;99.90
21744;DHT22;11034;48.556;9.342;2022-07-06T07:45:20;25.60;99.90
21744;DHT22;11034;48.556;9.342;2022-07-06T07:47:49;26.20;99.90
21744;DHT22;11034;48.556;9.342;2022-07-06T07:50:17;25.40;99.90
21744;DHT22;11034;48.556;9.342;2022-07-06T07:52:45;25.50;99.90
21744;DHT22;11034;48.556;9.342;2022-07-06T07:55:13;25.40;99.90
21744;DHT22;11034;48.556;9.342;2022-07-06T07:58:02;24.80;99.90
21744;DHT22;11034;48.556;9.342;2022-07-06T08:00:32;25.30;99.90
21744;DHT22;11034;48.556;9.342;2022-07-06T08:03:00;25.80;99.90
21744;DHT22;11034;48.556;9.342;2022-07-06T08:05:28;26.20;99.90
21744;DHT22;11034;48.556;9.342;2022-07-06T08:07:57;25.70;99.90
21744;DHT22;11034;48.556;9.342;2022-07-06T08:10:25;26.00;99.90
21744;DHT22;11034;48.556;9.342;2022-07-06T08:12:53;25.50;99.90
21744;DHT22;11034;48.556;9.342;2022-07-06T08:15:21;25.30;99.90
21744;DHT22;11034;48.556;9.342;2022-07-06T08:17:51;25.20;99.90
21744;DHT22;11034;48.556;9.342;2022-07-06T08:20:21;24.90;99.90
21744;DHT22;11034;48.556;9.342;2022-07-06T08:22:49;25.40;99.90
21744;DHT22;11034;48.556;9.342;2022-07-06T08:25:17;25.70;99.90
21744;DHT22;11034;48.556;9.342;2022-07-06T08:27:45;26.10;99.90
21744;DHT22;11034;48.556;9.342;2022-07-06T08:30:14;25.90;99.90
21744;DHT22;11034;48.556;9.342;2022-07-06T08:32:43;25.90;99.90
21744;DHT22;11034;48.556;9.342;2022-07-06T08:35:32;25.70;99.90
21744;DHT22;11034;48.556;9.342;2022-07-06T08:38:01;25.50;99.90
21744;DHT22;11034;48.556;9.342;2022-07-06T08:40:33;25.40;99.90
21744;DHT22;11034;48.556;9.342;2022-07-06T08:43:04;25.60;99.90
21744;DHT22;11034;48.556;9.342;2022-07-06T08:45:34;25.50;99.90
21744;DHT22;11034;48.556;9.342;2022-07-06T08:48:05;25.40;99.90
21744;DHT22;11034;48.556;9.342;2022-07-06T08:50:35;24.60;99.90
21744;DHT22;11034;48.556;9.342;2022-07-06T08:53:03;24.50;99.90
21744;DHT22;11034;48.556;9.342;2022-07-06T08:55:33;24.50;99.90
21744;DHT22;11034;48.556;9.342;2022-07-06T08:58:02;24.10;99.90
21744;DHT22;11034;48.556;9.342;2022-07-06T09:00:34;23.40;99.90
21744;DHT22;11034;48.556;9.342;2022-07-06T09:03:02;22.80;99.90
21744;DHT22;11034;48.556;9.342;2022-07-06T09:05:34;22.90;99.90
21744;DHT22;11034;48.556;9.342;2022-07-06T09:08:03;22.70;99.90
21744;DHT22;11034;48.556;9.342;2022-07-06T09:10:32;22.40;99.90
21744;DHT22;11034;48.556;9.342;2022-07-06T09:13:04;22.50;99.90
21744;DHT22;11034;48.556;9.342;2022-07-06T09:15:33;22.50;99.90
21744;DHT22;11034;48.556;9.342;2022-07-06T09:18:03;22.40;99.90
21744;DHT22;11034;48.556;9.342;2022-07-06T09:20:33;22.30;99.90
21744;DHT22;11034;48.556;9.342;2022-07-06T09:23:04;22.30;99.90
21744;DHT22;11034;48.556;9.342;2022-07-06T09:25:40;22.20;99.90
21744;DHT22;11034;48.556;9.342;2022-07-06T09:28:08;22.20;99.90
21744;DHT22;11034;48.556;9.342;2022-07-06T09:30:37;22.20;99.90
21744;DHT22;11034;48.556;9.342;2022-07-06T09:33:08;22.20;99.90
21744;DHT22;11034;48.556;9.342;2022-07-06T09:35:37;22.20;99.90
21744;DHT22;11034;48.556;9.342;2022-07-06T09:38:08;22.30;99.90
21744;DHT22;11034;48.556;9.342;2022-07-06T09:40:39;22.60;99.90
21744;DHT22;11034;48.556;9.342;2022-07-06T09:43:12;22.80;99.90
21744;DHT22;11034;48.556;9.342;2022-07-06T09:45:42;23.10;99.90
21744;DHT22;11034;48.556;9.342;2022-07-06T09:48:12;22.80;99.90
21744;DHT22;11034;48.556;9.342;2022-07-06T09:50:43;22.60;99.90
21744;DHT22;11034;48.556;9.342;2022-07-06T09:53:13;22.50;99.90
21744;DHT22;11034;48.556;9.342;2022-07-06T09:55:45;22.50;99.90
21744;DHT22;11034;48.556;9.342;2022-07-06T09:58:17;22.50;99.90
21744;DHT22;11034;48.556;9.342;2022-07-06T10:01:05;23.00;99.90
21744;DHT22;11034;48.556;9.342;2022-07-06T10:03:33;23.20;99.90
21744;DHT22;11034;48.556;9.342;2022-07-06T10:06:02;23.30;99.90
21744;DHT22;11034;48.556;9.342;2022-07-06T10:08:32;23.40;99.90
21744;DHT22;11034;48.556;9.342;2022-07-06T10:11:01;23.20;99.90
21744;DHT22;11034;48.556;9.342;2022-07-06T10:13:31;22.90;99.90
21744;DHT22;11034;48.556;9.342;2022-07-06T10:16:00;23.00;99.90
21744;DHT22;11034;48.556;9.342;2022-07-06T10:18:29;22.90;99.90
21744;DHT22;11034;48.556;9.342;2022-07-06T10:20:58;23.10;99.90
21744;DHT22;11034;48.556;9.342;2022-07-06T10:23:26;23.20;99.90
21744;DHT22;11034;48.556;9.342;2022-07-06T10:25:57;23.30;99.90
21744;DHT22;11034;48.556;9.342;2022-07-06T10:28:26;23.40;99.90
21744;DHT22;11034;48.556;9.342;2022-07-06T10:30:55;23.40;99.90
21744;DHT22;11034;48.556;9.342;2022-07-06T10:33:24;23.70;99.90
21744;DHT22;11034;48.556;9.342;2022-07-06T10:35:55;23.60;99.90
21744;DHT22;11034;48.556;9.342;2022-07-06T10:38:31;23.80;99.90
21744;DHT22;11034;48.556;9.342;2022-07-06T10:41:04;24.40;99.90
21744;DHT22;11034;48.556;9.342;2022-07-06T10:43:35;24.40;99.90
21744;DHT22;11034;48.556;9.342;2022-07-06T10:46:07;23.70;99.90
21744;DHT22;11034;48.556;9.342;2022-07-06T10:48:38;23.50;99.90
21744;DHT22;11034;48.556;9.342;2022-07-06T10:51:07;23.60;99.90
21744;DHT22;11034;48.556;9.342;2022-07-06T10:53:37;23.90;99.90
21744;DHT22;11034;48.556;9.342;2022-07-06T10:56:08;23.80;99.90
21744;DHT22;11034;48.556;9.342;2022-07-06T10:58:41;23.80;99.90
21744;DHT22;11034;48.556;9.342;2022-07-06T11:01:12;23.80;99.90
21744;DHT22;11034;48.556;9.342;2022-07-06T11:03:42;23.60;99.90
21744;DHT22;11034;48.556;9.342;2022-07-06T11:06:13;23.60;99.90
21744;DHT22;11034;48.556;9.342;2022-07-06T11:08:44;23.30;99.90
21744;DHT22;11034;48.556;9.342;2022-07-06T11:11:14;23.20;99.90
21744;DHT22;11034;48.556;9.342;2022-07-06T11:13:51;23.30;99.90
21744;DHT22;11034;48.556;9.342;2022-07-06T11:16:21;22.90;99.90
21744;DHT22;11034;48.556;9.342;2022-07-06T11:19:00;22.60;99.90
21744;DHT22;11034;48.556;9.342;2022-07-06T11:21:36;22.60;99.90
21744;DHT22;11034;48.556;9.342;2022-07-06T11:24:06;22.90;99.90
21744;DHT22;11034;48.556;9.342;2022-07-06T11:26:36;23.20;99.90
21744;DHT22;11034;48.556;9.342;2022-07-06T11:29:09;23.20;99.90
21744;DHT22;11034;48.556;9.342;2022-07-06T11:31:42;23.50;99.90
21744;DHT22;11034;48.556;9.342;2022-07-06T11:34:12;23.80;99.90
21744;DHT22;11034;48.556;9.342;2022-07-06T11:36:41;23.90;99.90
21744;DHT22;11034;48.556;9.342;2022-07-06T11:39:12;24.00;99.90
21744;DHT22;11034;48.556;9.342;2022-07-06T11:41:42;24.10;99.90
21744;DHT22;11034;48.556;9.342;2022-07-06T11:44:17;24.20;99.90
21744;DHT22;11034;48.556;9.342;2022-07-06T11:46:45;24.30;99.90
21744;DHT22;11034;48.556;9.342;2022-07-06T11:49:13;24.20;99.90
21744;DHT22;11034;48.556;9.342;2022-07-06T11:51:42;24.10;99.90
21744;DHT22;11034;48.556;9.342;2022-07-06T11:54:11;24.10;99.90
21744;DHT22;11034;48.556;9.342;2022-07-06T11:56:47;24.00;99.90
21744;DHT22;11034;48.556;9.342;2022-07-06T11:59:20;23.80;99.90
21744;DHT22;11034;48.556;9.342;2022-07-06T12:01:49;23.90;99.90
21744;DHT22;11034;48.556;9.342;2022-07-06T12:04:18;23.90;99.90
21744;DHT22;11034;48.556;9.342;2022-07-06T12:06:52;23.60;99.90
21744;DHT22;11034;48.556;9.342;2022-07-06T12:09:21;23.40;99.90
21744;DHT22;11034;48.556;9.342;2022-07-06T12:11:52;23.30;99.90
21744;DHT22;11034;48.556;9.342;2022-07-06T12:14:21;24.00;99.90
21744;DHT22;11034;48.556;9.342;2022-07-06T12:16:51;24.40;99.90
21744;DHT22;11034;48.556;9.342;2022-07-06T12:19:21;24.80;99.90
21744;DHT22;11034;48.556;9.342;2022-07-06T12:21:51;25.00;99.90
21744;DHT22;11034;48.556;9.342;2022-07-06T12:24:22;24.90;99.90
21744;DHT22;11034;48.556;9.342;2022-07-06T12:26:54;24.60;99.90
21744;DHT22;11034;48.556;9.342;2022-07-06T12:29:22;24.40;99.90
21744;DHT22;11034;48.556;9.342;2022-07-06T12:31:55;24.00;99.90
21744;DHT22;11034;48.556;9.342;2022-07-06T12:34:26;24.10;99.90
21744;DHT22;11034;48.556;9.342;2022-07-06T12:36:56;24.00;99.90
21744;DHT22;11034;48.556;9.342;2022-07-06T12:39:41;24.00;99.90
21744;DHT22;11034;48.556;9.342;2022-07-06T12:42:13;23.60;99.90
21744;DHT22;11034;48.556;9.342;2022-07-06T12:44:47;23.60;99.90
21744;DHT22;11034;48.556;9.342;2022-07-06T12:47:18;23.80;99.90
21744;DHT22;11034;48.556;9.342;2022-07-06T12:49:47;24.00;99.90
21744;DHT22;11034;48.556;9.342;2022-07-06T12:52:16;24.20;99.90
21744;DHT22;11034;48.556;9.342;2022-07-06T12:54:47;24.00;99.90
21744;DHT22;11034;48.556;9.342;2022-07-06T12:57:20;23.70;99.90
21744;DHT22;11034;48.556;9.342;2022-07-06T12:59:56;24.00;99.90
21744;DHT22;11034;48.556;9.342;2022-07-06T13:02:26;24.50;99.90
21744;DHT22;11034;48.556;9.342;2022-07-06T13:05:17;24.50;99.90
21744;DHT22;11034;48.556;9.342;2022-07-06T13:07:47;24.50;99.90
21744;DHT22;11034;48.556;9.342;2022-07-06T13:10:18;24.60;99.90
21744;DHT22;11034;48.556;9.342;2022-07-06T13:12:48;24.50;99.90
21744;DHT22;11034;48.556;9.342;2022-07-06T13:15:17;24.10;99.90
21744;DHT22;11034;48.556;9.342;2022-07-06T13:17:45;24.00;99.90
21744;DHT22;11034;48.556;9.342;2022-07-06T13:20:16;23.80;99.90
21744;DHT22;11034;48.556;9.342;2022-07-06T13:22:50;23.70;99.90
21744;DHT22;11034;48.556;9.342;2022-07-06T13:25:23;23.80;99.90
21744;DHT22;11034;48.556;9.342;2022-07-06T13:27:54;23.80;99.90
21744;DHT22;11034;48.556;9.342;2022-07-06T13:30:25;23.90;99.90
21744;DHT22;11034;48.556;9.342;2022-07-06T13:32:53;23.70;99.90
21744;DHT22;11034;48.556;9.342;2022-07-06T13:35:24;23.70;99.90
21744;DHT22;11034;48.556;9.342;2022-07-06T13:37:55;23.60;99.90
21744;DHT22;11034;48.556;9.342;2022-07-06T13:40:25;23.40;99.90
21744;DHT22;11034;48.556;9.342;2022-07-06T13:42:55;23.50;99.90
21744;DHT22;11034;48.556;9.342;2022-07-06T13:45:23;23.60;99.90
21744;DHT22;11034;48.556;9.342;2022-07-06T13:47:51;23.40;99.90
21744;DHT22;11034;48.556;9.342;2022-07-06T13:50:22;23.40;99.90
21744;DHT22;11034;48.556;9.342;2022-07-06T13:52:52;23.20;99.90
21744;DHT22;11034;48.556;9.342;2022-07-06T13:55:20;23.30;99.90
21744;DHT22;11034;48.556;9.342;2022-07-06T13:57:50;23.40;99.90
21744;DHT22;11034;48.556;9.342;2022-07-06T14:00:20;23.70;99.90
21744;DHT22;11034;48.556;9.342;2022-07-06T14:02:49;23.60;99.90
21744;DHT22;11034;48.556;9.342;2022-07-06T14:05:18;23.20;99.90
21744;DHT22;11034;48.556;9.342;2022-07-06T14:07:46;23.00;99.90
21744;DHT22;11034;48.556;9.342;2022-07-06T14:10:14;23.20;99.90
21744;DHT22;11034;48.556;9.342;2022-07-06T14:12:45;23.30;99.90
21744;DHT22;11034;48.556;9.342;2022-07-06T14:15:15;23.50;99.90
21744;DHT22;11034;48.556;9.342;2022-07-06T14:17:47;23.30;99.90
21744;DHT22;11034;48.556;9.342;2022-07-06T14:20:15;23.10;99.90
21744;DHT22;11034;48.556;9.342;2022-07-06T14:22:45;23.10;99.90
21744;DHT22;11034;48.556;9.342;2022-07-06T14:25:13;23.10;99.90
21744;DHT22;11034;48.556;9.342;2022-07-06T14:27:41;23.00;99.90
21744;DHT22;11034;48.556;9.342;2022-07-06T14:30:11;23.00;99.90
21744;DHT22;11034;48.556;9.342;2022-07-06T14:32:42;22.90;99.90
21744;DHT22;11034;48.556;9.342;2022-07-06T14:35:13;22.70;99.90
21744;DHT22;11034;48.556;9.342;2022-07-06T14:37:42;22.80;99.90
21744;DHT22;11034;48.556;9.342;2022-07-06T14:40:11;23.20;99.90
21744;DHT22;11034;48.556;9.342;2022-07-06T14:42:39;23.30;99.90
21744;DHT22;11034;48.556;9.342;2022-07-06T14:45:08;23.20;99.90
21744;DHT22;11034;48.556;9.342;2022-07-06T14:47:36;23.20;99.90
21744;DHT22;11034;48.556;9.342;2022-07-06T14:50:05;23.20;99.90
21744;DHT22;11034;48.556;9.342;2022-07-06T14:52:35;23.20;99.90
21744;DHT22;11034;48.556;9.342;2022-07-06T14:55:04;23.40;99.90
21744;DHT22;11034;48.556;9.342;2022-07-06T14:57:43;23.80;99.90
21744;DHT22;11034;48.556;9.342;2022-07-06T15:00:13;24.20;99.90
21744;DHT22;11034;48.556;9.342;2022-07-06T15:02:42;24.40;99.90
21744;DHT22;11034;48.556;9.342;2022-07-06T15:05:11;24.30;99.90
21744;DHT22;11034;48.556;9.342;2022-07-06T15:07:42;24.00;99.90
21744;DHT22;11034;48.556;9.342;2022-07-06T15:10:16;24.20;99.90
21744;DHT22;11034;48.556;9.342;2022-07-06T15:12:44;24.00;99.90
21744;DHT22;11034;48.556;9.342;2022-07-06T15:15:14;23.70;99.90
21744;DHT22;11034;48.556;9.342;2022-07-06T15:18:02;23.40;99.90
21744;DHT22;11034;48.556;9.342;2022-07-06T15:20:31;23.20;99.90
21744;DHT22;11034;48.556;9.342;2022-07-06T15:23:04;23.10;99.90
21744;DHT22;11034;48.556;9.342;2022-07-06T15:25:32;23.10;99.90
21744;DHT22;11034;48.556;9.342;2022-07-06T15:28:03;23.00;99.90
21744;DHT22;11034;48.556;9.342;2022-07-06T15:30:32;23.00;99.90
21744;DHT22;11034;48.556;9.342;2022-07-06T15:33:05;23.00;99.90
21744;DHT22;11034;48.556;9.342;2022-07-06T15:35:33;22.90;99.90
21744;DHT22;11034;48.556;9.342;2022-07-06T15:38:02;23.10;99.90
21744;DHT22;11034;48.556;9.342;2022-07-06T15:40:31;23.10;99.90
21744;DHT22;11034;48.556;9.342;2022-07-06T15:43:05;23.10;99.90
21744;DHT22;11034;48.556;9.342;2022-07-06T15:45:33;23.00;99.90
21744;DHT22;11034;48.556;9.342;2022-07-06T15:48:03;22.90;99.90